Time;durP1;ratioP1;P1;durP2;ratioP2;P2;SDS_P1;SDS_P2;PMS_P1;PMS_P2;Temp;Humidity;BMP_temperature;BMP_pressure;BME280_temperature;BME280_humidity;BME280_pressure;Samples;Min_cycle;Max_cycle;Signal;HPM_P1;HPM_P2
2023/08/20 00:01:52;;;;;;;14.13;11.27;;;;;;;;;;10370628;22;20496;-71
2023/08/20 00:06:48;;;;;;;12.82;11.60;;;;;;;;;;10339900;28;20479;-72
2023/08/20 00:11:44;;;;;;;21.92;14.02;;;;;;;;;;10348491;28;20051;-72
2023/08/20 00:16:41;;;;;;;21.30;12.90;;;;;;;;;;10346093;28;20052;-72
2023/08/20 00:21:42;;;;;;;20.13;13.82;;;;;;;;;;10347429;28;20044;-71
2023/08/20 00:26:38;;;;;;;17.53;13.80;;;;;;;;;;10345411;28;20048;-72
2023/08/20 00:31:35;;;;;;;14.73;13.23;;;;;;;;;;10347782;28;20071;-72
2023/08/20 00:36:31;;;;;;;21.88;14.93;;;;;;;;;;10343121;28;20139;-72
2023/08/20 00:41:27;;;;;;;16.58;14.88;;;;;;;;;;10347630;28;20557;-72
2023/08/20 00:46:23;;;;;;;16.25;14.10;;;;;;;;;;10324944;28;20460;-72
2023/08/20 00:51:20;;;;;;;17.35;15.57;;;;;;;;;;10292102;22;20073;-72
2023/08/20 00:56:16;;;;;;;15.98;13.32;;;;;;;;;;10252109;28;20050;-72
2023/08/20 01:01:12;;;;;;;18.45;15.23;;;;;;;;;;10252973;28;20053;-72
2023/08/20 01:06:29;;;;;;;17.40;15.05;;;;;;;;;;10248932;28;20151;-72
2023/08/20 01:11:29;;;;;;;19.75;14.88;;;;;;;;;;10258704;28;20526;-72
2023/08/20 01:16:25;;;;;;;16.95;15.15;;;;;;;;;;10248627;28;20449;-71
2023/08/20 01:21:45;;;;;;;15.65;14.13;;;;;;;;;;10491034;22;20052;-72
2023/08/20 01:27:00;;;;;;;16.63;14.23;;;;;;;;;;10354449;28;20052;-72
2023/08/20 01:31:56;;;;;;;21.95;15.77;;;;;;;;;;10384538;22;20056;-72
2023/08/20 01:36:52;;;;;;;17.15;14.88;;;;;;;;;;10305123;28;20083;-72
2023/08/20 01:42:53;;;;;;;;;;;;;;;;;;;;;
2023/08/20 01:48:04;;;;;;;18.10;14.63;;;;;;;;;;10299612;28;20044;-72
2023/08/20 01:53:02;;;;;;;21.23;16.23;;;;;;;;;;10297216;28;20074;-71
2023/08/20 01:57:59;;;;;;;16.73;14.40;;;;;;;;;;10308277;28;20543;-72
2023/08/20 02:02:55;;;;;;;18.80;16.15;;;;;;;;;;10613105;22;20043;-74
2023/08/20 02:07:51;;;;;;;23.23;15.60;;;;;;;;;;10348423;28;20047;-72
2023/08/20 02:12:48;;;;;;;18.33;16.25;;;;;;;;;;10333955;28;20048;-71
2023/08/20 02:17:44;;;;;;;17.77;15.93;;;;;;;;;;10339290;28;20060;-72
2023/08/20 02:22:40;;;;;;;21.30;14.85;;;;;;;;;;10333644;28;20044;-72
2023/08/20 02:27:37;;;;;;;25.15;15.77;;;;;;;;;;10336942;28;20045;-73
2023/08/20 02:32:43;;;;;;;18.88;15.85;;;;;;;;;;10495667;22;20061;-74
2023/08/20 02:44:47;;;;;;;;;;;;;;;;;;;;;
2023/08/20 03:01:00;;;;;;;24.52;15.40;;;;;;;;;;10371408;28;20490;-74
2023/08/20 03:05:56;;;;;;;16.90;15.15;;;;;;;;;;10372103;28;20047;-74
2023/08/20 03:10:53;;;;;;;17.98;15.57;;;;;;;;;;10378930;28;20070;-74
2023/08/20 03:15:49;;;;;;;20.38;16.52;;;;;;;;;;10368251;28;20036;-74
2023/08/20 03:20:46;;;;;;;16.60;14.82;;;;;;;;;;10361080;28;20059;-74
2023/08/20 03:25:42;;;;;;;17.83;15.93;;;;;;;;;;10376503;28;20044;-73
2023/08/20 03:30:38;;;;;;;18.88;15.93;;;;;;;;;;10384269;28;20565;-73
2023/08/20 03:35:35;;;;;;;19.15;15.85;;;;;;;;;;10363001;28;20045;-73
2023/08/20 03:47:14;;;;;;;;;;;;;;;;;;;;;
2023/08/20 04:03:45;;;;;;;17.25;15.65;;;;;;;;;;10268179;28;20053;-73
2023/08/20 04:08:42;;;;;;;20.88;16.55;;;;;;;;;;10293187;28;20659;-73
2023/08/20 04:20:14;;;;;;;32.80;23.17;;;;;;;;;;10372766;22;20060;-73
2023/08/20 04:25:11;;;;;;;31.00;24.17;;;;;;;;;;10278539;28;20094;-73
2023/08/20 04:35:18;;;;;;;36.13;27.55;;;;;;;;;;9472310;26;20635;-73
2023/08/20 04:40:15;;;;;;;32.75;26.77;;;;;;;;;;10457938;22;20052;-73
2023/08/20 04:45:13;;;;;;;33.95;29.10;;;;;;;;;;10350790;28;20507;-73
2023/08/20 05:46:08;;;;;;;36.10;28.10;;;;;;;;;;10388869;22;19920;-73
2023/08/20 05:51:05;;;;;;;44.25;31.23;;;;;;;;;;10305265;28;20507;-72
2023/08/20 05:56:01;;;;;;;40.22;30.77;;;;;;;;;;10301409;28;20045;-72
2023/08/20 06:06:08;;;;;;;35.30;28.80;;;;;;;;;;10486874;22;20071;-72
2023/08/20 06:11:05;;;;;;;46.17;29.50;;;;;;;;;;10303007;28;20051;-72
2023/08/20 06:16:01;;;;;;;32.83;24.55;;;;;;;;;;10303659;28;20076;-72
2023/08/20 06:26:09;;;;;;;31.65;26.48;;;;;;;;;;10376866;23;20043;-73
2023/08/20 06:48:00;;;;;;;31.83;25.10;;;;;;;;;;10412005;22;20071;-73
2023/08/20 07:20:27;;;;;;;39.75;26.98;;;;;;;;;;10268547;28;20068;-73
2023/08/20 07:25:25;;;;;;;38.60;27.15;;;;;;;;;;10257661;28;20057;-73
2023/08/20 07:42:18;;;;;;;40.08;27.60;;;;;;;;;;10271581;28;20045;-73
2023/08/20 07:48:02;;;;;;;41.97;27.25;;;;;;;;;;10283699;28;20041;-73
2023/08/20 07:53:38;;;;;;;34.80;25.08;;;;;;;;;;10320688;22;20071;-73
2023/08/20 08:04:09;;;;;;;30.65;21.90;;;;;;;;;;8516368;26;20042;-73
2023/08/20 08:09:14;;;;;;;27.23;18.33;;;;;;;;;;10223877;28;20045;-73
2023/08/20 08:14:11;;;;;;;24.63;17.38;;;;;;;;;;10182697;28;20042;-73
2023/08/20 08:19:07;;;;;;;12.25;10.27;;;;;;;;;;10187871;28;20062;-73
2023/08/20 08:24:04;;;;;;;10.48;9.23;;;;;;;;;;10190843;28;20042;-73
2023/08/20 08:29:01;;;;;;;10.68;8.85;;;;;;;;;;10182016;28;20389;-73
2023/08/20 08:33:58;;;;;;;9.38;8.40;;;;;;;;;;10166693;28;20062;-73
2023/08/20 08:38:54;;;;;;;9.27;6.15;;;;;;;;;;10176074;28;20073;-73
2023/08/20 08:43:51;;;;;;;12.80;6.97;;;;;;;;;;10202491;28;20500;-73
2023/08/20 08:48:48;;;;;;;9.40;5.63;;;;;;;;;;10202198;28;20097;-73
2023/08/20 08:53:45;;;;;;;8.25;6.10;;;;;;;;;;10179391;28;20074;-73
2023/08/20 08:58:41;;;;;;;9.48;6.10;;;;;;;;;;10185780;28;20084;-73
2023/08/20 09:03:37;;;;;;;10.77;6.57;;;;;;;;;;10333230;23;20699;-73
2023/08/20 09:08:34;;;;;;;8.15;5.80;;;;;;;;;;10315628;28;20510;-73
2023/08/20 09:37:45;;;;;;;6.45;5.50;;;;;;;;;;10113839;28;20058;-73
2023/08/20 09:50:12;;;;;;;8.65;5.53;;;;;;;;;;10224043;28;20056;-74
2023/08/20 09:55:22;;;;;;;8.93;6.40;;;;;;;;;;10291167;28;20522;-74
2023/08/20 10:00:45;;;;;;;8.02;6.00;;;;;;;;;;10262931;28;20127;-74
2023/08/20 10:05:49;;;;;;;9.65;5.82;;;;;;;;;;10280890;28;20567;-73
2023/08/20 10:17:16;;;;;;;9.27;6.00;;;;;;;;;;10274549;28;20568;-73
2023/08/20 11:05:04;;;;;;;6.70;6.10;;;;;;;;;;9935419;29;20044;-73
2023/08/20 11:22:42;;;;;;;11.10;6.07;;;;;;;;;;10076618;28;20118;-73
2023/08/20 11:27:58;;;;;;;10.98;6.72;;;;;;;;;;10093642;28;20398;-74
2023/08/20 11:33:49;;;;;;;6.97;5.43;;;;;;;;;;10231673;23;20040;-74
2023/08/20 11:39:08;;;;;;;7.70;6.25;;;;;;;;;;10278569;28;20076;-74
2023/08/20 11:44:05;;;;;;;8.13;6.20;;;;;;;;;;10298221;28;20555;-74
2023/08/20 11:49:03;;;;;;;6.97;6.28;;;;;;;;;;10299258;28;20127;-74
2023/08/20 11:53:59;;;;;;;9.55;6.35;;;;;;;;;;10287321;28;20076;-74
2023/08/20 11:58:59;;;;;;;8.75;6.30;;;;;;;;;;10291093;28;20052;-74
2023/08/20 12:05:10;;;;;;;;;;;;;;;;;;;;;
2023/08/20 12:33:43;;;;;;;6.90;6.13;;;;;;;;;;10177143;28;20099;-73
2023/08/20 12:51:20;;;;;;;9.65;5.97;;;;;;;;;;10113760;28;20545;-74
2023/08/20 12:56:44;;;;;;;6.45;5.85;;;;;;;;;;10228317;28;20158;-74
2023/08/20 13:08:16;;;;;;;8.55;6.10;;;;;;;;;;10193635;28;20053;-74
2023/08/20 13:19:33;;;;;;;6.65;5.95;;;;;;;;;;10235758;28;20037;-74
2023/08/20 13:29:59;;;;;;;10.90;6.13;;;;;;;;;;10264558;28;20053;-74
2023/08/20 13:34:55;;;;;;;7.25;5.97;;;;;;;;;;10256753;28;20053;-74
2023/08/20 13:39:51;;;;;;;6.93;6.00;;;;;;;;;;10260147;28;20056;-74
2023/08/20 13:44:48;;;;;;;9.68;6.20;;;;;;;;;;10269380;28;20048;-74
2023/08/20 13:50:13;;;;;;;7.78;6.28;;;;;;;;;;10268685;22;20109;-74
2023/08/20 13:56:26;;;;;;;6.32;5.38;;;;;;;;;;10283975;28;21288;-74
2023/08/20 14:02:22;;;;;;;9.65;5.75;;;;;;;;;;10208020;22;20060;-74
2023/08/20 14:07:27;;;;;;;11.40;5.80;;;;;;;;;;10201518;28;20061;-74
2023/08/20 14:12:29;;;;;;;6.88;5.60;;;;;;;;;;10186776;28;20471;-74
2023/08/20 14:17:48;;;;;;;8.98;5.63;;;;;;;;;;10263094;28;20506;-74
2023/08/20 14:23:34;;;;;;;5.47;4.93;;;;;;;;;;10304975;28;20044;-74
2023/08/20 14:35:16;;;;;;;6.97;5.47;;;;;;;;;;10291806;28;20493;-74
2023/08/20 14:40:49;;;;;;;;;;;;;;;;;;;;;
2023/08/20 14:52:13;;;;;;;7.70;5.10;;;;;;;;;;10103100;28;20051;-74
2023/08/20 14:57:41;;;;;;;8.25;5.40;;;;;;;;;;10078890;28;20103;-73
2023/08/20 15:03:19;;;;;;;5.80;4.75;;;;;;;;;;10216320;28;20808;-73
2023/08/20 15:08:47;;;;;;;8.93;4.78;;;;;;;;;;10207389;28;20066;-73
2023/08/20 15:20:12;;;;;;;8.35;5.60;;;;;;;;;;10225790;22;20048;-73
2023/08/20 15:25:58;;;;;;;9.70;5.82;;;;;;;;;;10225832;28;20047;-73
2023/08/20 15:43:07;;;;;;;7.88;5.47;;;;;;;;;;10099623;28;20043;-73
2023/08/20 15:48:23;;;;;;;8.80;5.65;;;;;;;;;;10074871;28;20043;-73
2023/08/20 15:53:32;;;;;;;9.25;6.40;;;;;;;;;;10089306;28;20059;-73
2023/08/20 15:58:28;;;;;;;6.50;4.90;;;;;;;;;;10106882;28;20094;-73
2023/08/20 16:03:43;;;;;;;6.80;5.00;;;;;;;;;;10339829;23;20097;-73
2023/08/20 16:08:58;;;;;;;6.93;4.88;;;;;;;;;;10334892;28;20102;-73
2023/08/20 16:14:04;;;;;;;5.50;5.00;;;;;;;;;;10338881;22;20052;-73
2023/08/20 16:19:00;;;;;;;6.30;5.60;;;;;;;;;;10289701;28;20048;-73
2023/08/20 16:23:57;;;;;;;7.18;5.32;;;;;;;;;;10311151;28;20044;-73
2023/08/20 16:28:53;;;;;;;6.20;4.60;;;;;;;;;;10306614;28;20503;-73
2023/08/20 16:33:49;;;;;;;7.63;5.18;;;;;;;;;;10313793;28;20087;-73
2023/08/20 16:38:49;;;;;;;8.63;5.38;;;;;;;;;;10308740;28;20063;-73
2023/08/20 16:43:45;;;;;;;6.25;5.65;;;;;;;;;;10306605;28;20044;-73
2023/08/20 16:48:41;;;;;;;7.25;5.30;;;;;;;;;;10302618;28;20053;-73
2023/08/20 16:53:38;;;;;;;6.75;6.07;;;;;;;;;;10311813;28;20045;-73
2023/08/20 16:58:34;;;;;;;7.68;5.38;;;;;;;;;;10303962;28;20139;-73
2023/08/20 17:03:30;;;;;;;6.00;5.40;;;;;;;;;;10297161;28;20045;-73
2023/08/20 17:08:27;;;;;;;5.75;4.95;;;;;;;;;;10305912;28;20136;-73
2023/08/20 17:13:23;;;;;;;9.30;4.72;;;;;;;;;;10305445;28;20418;-73
2023/08/20 17:18:20;;;;;;;6.20;4.47;;;;;;;;;;10311602;28;20144;-73
2023/08/20 17:23:17;;;;;;;9.48;4.50;;;;;;;;;;10312564;28;20079;-73
2023/08/20 17:28:13;;;;;;;6.82;4.53;;;;;;;;;;10310855;28;20193;-73
2023/08/20 17:33:15;;;;;;;11.60;5.38;;;;;;;;;;10305448;28;20107;-73
2023/08/20 17:38:11;;;;;;;8.85;5.07;;;;;;;;;;10311250;28;20091;-73
2023/08/20 17:49:43;;;;;;;8.45;6.10;;;;;;;;;;10052080;28;20130;-73
2023/08/20 17:54:47;;;;;;;6.90;5.22;;;;;;;;;;10243756;28;20061;-73
2023/08/20 18:00:29;;;;;;;;;;;;;;;;;;;;;
2023/08/20 18:17:55;;;;;;;11.20;6.22;;;;;;;;;;10252313;28;20071;-73
2023/08/20 18:22:57;;;;;;;7.43;5.63;;;;;;;;;;10239601;28;20085;-73
2023/08/20 18:34:26;;;;;;;8.80;5.72;;;;;;;;;;10168129;28;20087;-73
2023/08/20 18:40:11;;;;;;;6.78;5.57;;;;;;;;;;10255354;28;20523;-73
2023/08/20 18:51:15;;;;;;;18.35;6.57;;;;;;;;;;10214617;28;20937;-73
2023/08/20 18:56:11;;;;;;;7.38;5.43;;;;;;;;;;10260318;28;20049;-73
2023/08/20 19:01:08;;;;;;;6.25;5.28;;;;;;;;;;10257027;28;20041;-73
2023/08/20 19:06:04;;;;;;;6.65;5.20;;;;;;;;;;10255296;28;20056;-73
2023/08/20 19:11:01;;;;;;;6.82;5.40;;;;;;;;;;10256773;28;20083;-73
2023/08/20 19:15:57;;;;;;;7.90;5.50;;;;;;;;;;10256264;28;20177;-73
2023/08/20 19:20:54;;;;;;;7.45;5.47;;;;;;;;;;10263811;28;20513;-73
2023/08/20 19:25:50;;;;;;;8.68;6.07;;;;;;;;;;10242696;28;20049;-73
2023/08/20 19:36:03;;;;;;;9.77;5.80;;;;;;;;;;10239381;28;20119;-73
2023/08/20 19:41:30;;;;;;;7.55;6.00;;;;;;;;;;10236302;28;20061;-73
2023/08/20 19:52:21;;;;;;;10.48;5.90;;;;;;;;;;10244762;28;20073;-72
2023/08/20 19:57:17;;;;;;;7.82;5.93;;;;;;;;;;10272274;28;20049;-72
2023/08/20 20:02:13;;;;;;;12.10;6.10;;;;;;;;;;10269051;28;20057;-71
2023/08/20 20:07:09;;;;;;;9.90;5.55;;;;;;;;;;10263686;28;20088;-70
2023/08/20 20:12:18;;;;;;;9.15;5.68;;;;;;;;;;10269117;28;20052;-69
2023/08/20 20:17:14;;;;;;;7.88;5.68;;;;;;;;;;10266201;28;20052;-70
2023/08/20 20:22:10;;;;;;;9.05;5.38;;;;;;;;;;10264337;28;20183;-70
2023/08/20 20:27:06;;;;;;;8.00;6.05;;;;;;;;;;10265265;28;20076;-71
2023/08/20 20:32:03;;;;;;;8.23;6.32;;;;;;;;;;10323685;23;20084;-71
2023/08/20 20:36:59;;;;;;;12.13;6.15;;;;;;;;;;10264402;28;20100;-70
2023/08/20 20:41:56;;;;;;;7.70;5.95;;;;;;;;;;10348800;22;20049;-70
2023/08/20 20:46:52;;;;;;;9.93;6.57;;;;;;;;;;10274996;28;20076;-70
2023/08/20 20:51:48;;;;;;;8.90;6.63;;;;;;;;;;10269459;28;20427;-70
2023/08/20 20:56:45;;;;;;;11.75;7.85;;;;;;;;;;10243023;28;20057;-70
2023/08/20 21:01:41;;;;;;;8.65;6.00;;;;;;;;;;10266594;28;20085;-70
2023/08/20 21:06:37;;;;;;;12.50;8.70;;;;;;;;;;10267512;28;20065;-69
2023/08/20 21:11:33;;;;;;;12.10;6.70;;;;;;;;;;10274582;28;20065;-69
2023/08/20 21:16:30;;;;;;;12.25;7.93;;;;;;;;;;10273947;28;20044;-69
2023/08/20 21:21:26;;;;;;;11.13;7.03;;;;;;;;;;10266088;28;20051;-69
2023/08/20 21:26:23;;;;;;;12.38;8.43;;;;;;;;;;10272967;28;20045;-68
2023/08/20 21:31:19;;;;;;;12.60;7.60;;;;;;;;;;10271508;28;20423;-69
2023/08/20 21:36:15;;;;;;;15.85;7.13;;;;;;;;;;10266961;28;20053;-68
2023/08/20 21:41:12;;;;;;;10.85;6.82;;;;;;;;;;10264644;28;20565;-69
2023/08/20 21:46:08;;;;;;;8.60;6.07;;;;;;;;;;10264808;28;20046;-70
2023/08/20 21:51:04;;;;;;;8.55;5.72;;;;;;;;;;10390994;22;20119;-68
2023/08/20 21:56:00;;;;;;;7.80;5.70;;;;;;;;;;10268063;28;20037;-69
2023/08/20 22:01:02;;;;;;;10.23;5.63;;;;;;;;;;10260817;28;20055;-69
2023/08/20 22:05:59;;;;;;;9.43;6.07;;;;;;;;;;10262015;28;20052;-68
2023/08/20 22:10:56;;;;;;;9.85;6.10;;;;;;;;;;10248420;28;20056;-68
2023/08/20 22:15:52;;;;;;;7.20;6.15;;;;;;;;;;10263823;28;20045;-68
2023/08/20 22:20:50;;;;;;;7.80;5.75;;;;;;;;;;10265847;28;20110;-69
2023/08/20 22:25:46;;;;;;;13.82;5.85;;;;;;;;;;10267100;28;20068;-68
2023/08/20 22:30:43;;;;;;;10.52;6.15;;;;;;;;;;10273121;22;20522;-68
2023/08/20 22:35:39;;;;;;;19.42;6.25;;;;;;;;;;10268667;28;20075;-68
2023/08/20 22:40:37;;;;;;;9.68;6.82;;;;;;;;;;10269109;28;20102;-69
2023/08/20 22:45:34;;;;;;;10.65;6.50;;;;;;;;;;10257597;28;20063;-69
2023/08/20 22:50:30;;;;;;;10.48;6.38;;;;;;;;;;10272889;28;20064;-69
2023/08/20 22:55:27;;;;;;;9.70;6.32;;;;;;;;;;10265329;28;20077;-69
2023/08/20 23:00:26;;;;;;;11.45;6.07;;;;;;;;;;10264457;28;20136;-68
2023/08/20 23:05:23;;;;;;;11.45;6.03;;;;;;;;;;10268326;28;20049;-69
2023/08/20 23:10:19;;;;;;;9.82;6.05;;;;;;;;;;10269558;28;20139;-68
2023/08/20 23:15:15;;;;;;;10.30;6.43;;;;;;;;;;10272924;28;20057;-68
2023/08/20 23:20:13;;;;;;;10.85;6.97;;;;;;;;;;10274245;28;20045;-69
2023/08/20 23:25:09;;;;;;;12.73;6.95;;;;;;;;;;10265468;28;20518;-68
2023/08/20 23:30:09;;;;;;;9.30;6.72;;;;;;;;;;10310604;22;20056;-68
2023/08/20 23:35:07;;;;;;;9.52;7.68;;;;;;;;;;10277015;28;20088;-69
2023/08/20 23:40:03;;;;;;;10.10;6.32;;;;;;;;;;10273428;28;20098;-69
2023/08/20 23:44:59;;;;;;;13.20;6.68;;;;;;;;;;10257937;28;20057;-69
2023/08/20 23:49:56;;;;;;;12.90;7.03;;;;;;;;;;10255908;28;20064;-69
2023/08/20 23:54:52;;;;;;;11.48;6.93;;;;;;;;;;10268903;28;20119;-68
2023/08/20 23:59:48;;;;;;;14.00;7.32;;;;;;;;;;10256962;28;20053;-68
